Terminal Aerodrome Forecast
Issued by NWS

Home | Current Version | Previous Version | Text Only | Print | Product List | Glossary On
Versions: 1 2 3 4 5 6 7 8 9 10 11 12 13 14 15 16
000
FTUS42 TJSJ 121800 AAA
TAFJPS
TAF AMD
TJPS 121846Z 1219/1318 14010G25KT P6SM VCTS SCT030CB
     FM122300 VRB06KT P6SM FEW030
     FM131400 14010KT P6SM FEW030 SCT050
      AMD NOT SKED TIL 130300=

USA.gov is the U.S. government's official web portal to all federal, state and local government web resources and services.